If you wish to contribute or participate in the discussions about articles you are invited to join SKYbrary as a registered user

 Actions

Anvik Airport

From SKYbrary Wiki

PANV
Airport
ICAO: PANV – IATA: ANV
Summary
Name Anvik Airport
Region North America
Territory Alaska US.gif
Location , Alaska
Serving Anvik
Elevation 88.697 m
291 ft
291 ft88.697 m
Type medium airport
Coordinates 62° 38' 48.12" N, 160° 11' 27.60" W
Runways
Designator Length Width Surface ROPS
17/35 902 m2,959.318 ft
23 m75.459 ft
GVL /


METAR
Observation PANV 220556Z AUTO 19008KT 10SM FEW045 M04/M06 A3013 RMK AO2 SLP223 60000 T10441061 11022 21044 51016 FZRANO
Station Anvik, Anvik Airport
Date/Time 22 February 2019 05:56:00
Wind direction 190°
Wind speed 08 kts
Lowest cloud amount few clouds
Temperature
Dew point
Humidity 87%
QNH hPa
Weather condition n/a